Time;durP1;ratioP1;P1;durP2;ratioP2;P2;SDS_P1;SDS_P2;PMS_P1;PMS_P2;Temp;Humidity;BMP_temperature;BMP_pressure;BME280_temperature;BME280_humidity;BME280_pressure;Samples;Min_cycle;Max_cycle;Signal;HPM_P1;HPM_P2
2023/10/26 00:00:47;;;;;;;;;;;;;;;16.82;69.03;98863.63;5459302;32;34852;-66
2023/10/26 00:03:49;;;;;;;;;;;;;;;17.16;67.71;98864.06;5457428;32;35128;-76
2023/10/26 00:06:51;;;;;;;;;;;;;;;17.29;66.65;98854.00;5465425;32;34352;-65
2023/10/26 00:09:53;;;;;;;;;;;;;;;16.41;70.20;98857.44;5459396;32;35276;-64
2023/10/26 00:12:56;;;;;;;;;;;;;;;16.45;70.18;98845.59;5449813;32;35287;-64
2023/10/26 00:15:58;;;;;;;;;;;;;;;16.14;72.08;98852.72;5459418;32;34404;-75
2023/10/26 00:19:00;;;;;;;;;;;;;;;16.06;72.93;98839.31;5449967;32;35626;-74
2023/10/26 00:22:02;;;;;;;;;;;;;;;15.95;73.50;98837.56;5445539;32;35495;-76
2023/10/26 00:25:05;;;;;;;;;;;;;;;16.20;72.23;98839.78;5445463;32;34758;-75
2023/10/26 00:28:07;;;;;;;;;;;;;;;16.70;69.95;98829.22;5465253;32;35632;-75
2023/10/26 00:31:09;;;;;;;;;;;;;;;17.10;67.68;98825.66;5440422;32;34218;-75
2023/10/26 00:34:11;;;;;;;;;;;;;;;16.80;68.33;98826.56;5449967;32;34619;-75
2023/10/26 00:37:14;;;;;;;;;;;;;;;17.05;67.38;98822.56;5460547;32;34191;-64
2023/10/26 00:40:16;;;;;;;;;;;;;;;16.76;68.53;98828.69;5449753;32;34738;-64
2023/10/26 00:43:20;;;;;;;;;;;;;;;16.28;70.74;98825.84;5461120;32;35073;-73
2023/10/26 00:46:22;;;;;;;;;;;;;;;15.60;73.58;98817.53;5445296;32;34813;-65
2023/10/26 00:49:50;;;;;;;;;;;;;;;15.54;74.44;98814.56;5449234;32;34871;-64
2023/10/26 00:53:15;;;;;;;;;;;;;;;15.14;76.93;98821.41;5457570;32;36423;-75
2023/10/26 00:56:39;;;;;;;;;;;;;;;16.12;72.75;98823.72;5411307;32;36027;-64
2023/10/26 00:59:48;;;;;;;;;;;;;;;16.45;71.04;98822.56;5366341;32;34678;-65
2023/10/26 01:02:50;;;;;;;;;;;;;;;16.18;71.65;98827.66;5365956;32;35329;-73
2023/10/26 01:05:52;;;;;;;;;;;;;;;16.08;72.46;98810.84;5382113;32;34261;-73
2023/10/26 01:08:54;;;;;;;;;;;;;;;15.61;74.04;98813.91;5375822;32;34688;-73
2023/10/26 01:11:57;;;;;;;;;;;;;;;16.20;72.18;98815.91;5361184;32;34671;-74
2023/10/26 01:14:59;;;;;;;;;;;;;;;15.61;75.09;98808.62;5371942;32;35584;-66
2023/10/26 01:18:01;;;;;;;;;;;;;;;15.93;73.59;98807.72;5361293;32;34510;-63
2023/10/26 01:21:04;;;;;;;;;;;;;;;15.50;74.80;98806.03;5381484;32;34743;-64
2023/10/26 01:24:06;;;;;;;;;;;;;;;15.18;77.03;98801.62;5375046;32;34973;-74
2023/10/26 01:27:08;;;;;;;;;;;;;;;15.50;75.83;98802.56;5372516;32;34679;-75
2023/10/26 01:30:12;;;;;;;;;;;;;;;15.23;77.12;98797.78;5364313;32;34172;-64
2023/10/26 01:33:14;;;;;;;;;;;;;;;15.48;74.92;98786.81;5383338;32;34001;-65
2023/10/26 01:36:17;;;;;;;;;;;;;;;15.62;74.92;98788.31;5377965;32;35758;-64
2023/10/26 01:39:19;;;;;;;;;;;;;;;15.30;76.62;98783.88;5374034;32;34578;-74
2023/10/26 01:42:21;;;;;;;;;;;;;;;15.48;76.01;98786.81;5369935;32;36008;-64
2023/10/26 01:45:23;;;;;;;;;;;;;;;16.05;73.39;98782.81;5361657;32;34646;-65
2023/10/26 01:48:26;;;;;;;;;;;;;;;16.15;73.07;98788.13;5376310;32;34774;-76
2023/10/26 01:51:28;;;;;;;;;;;;;;;16.24;72.01;98792.66;5372216;32;34948;-73
2023/10/26 01:54:30;;;;;;;;;;;;;;;15.88;73.59;98789.56;5375873;32;34605;-74
2023/10/26 01:57:32;;;;;;;;;;;;;;;16.58;70.61;98787.84;5357884;32;33809;-74
2023/10/26 02:00:34;;;;;;;;;;;;;;;16.65;69.71;98790.78;5371003;32;34938;-63
2023/10/26 02:03:38;;;;;;;;;;;;;;;15.49;74.93;98782.34;5403628;32;34760;-73
2023/10/26 02:06:40;;;;;;;;;;;;;;;15.48;75.25;98778.03;5436550;32;35374;-64
2023/10/26 02:09:42;;;;;;;;;;;;;;;15.49;75.88;98772.59;5462026;32;34772;-74
2023/10/26 02:12:44;;;;;;;;;;;;;;;15.12;78.62;98777.47;5459610;32;34603;-64
2023/10/26 02:15:46;;;;;;;;;;;;;;;16.10;73.50;98767.34;5462093;32;34542;-63
2023/10/26 02:18:49;;;;;;;;;;;;;;;16.45;71.02;98771.34;5468509;32;35170;-64
2023/10/26 02:21:51;;;;;;;;;;;;;;;16.41;71.19;98775.25;5459758;32;35082;-74
2023/10/26 02:24:53;;;;;;;;;;;;;;;16.56;70.48;98773.06;5448472;32;35485;-74
2023/10/26 02:27:55;;;;;;;;;;;;;;;16.51;70.40;98776.09;5459203;32;34682;-64
2023/10/26 02:30:57;;;;;;;;;;;;;;;16.02;72.40;98767.16;5463306;32;34733;-74
2023/10/26 02:34:00;;;;;;;;;;;;;;;16.48;70.96;98761.28;5441893;32;34845;-75
2023/10/26 02:37:02;;;;;;;;;;;;;;;16.00;72.20;98763.81;5461350;32;35492;-63
2023/10/26 02:40:05;;;;;;;;;;;;;;;15.84;73.07;98760.81;5456905;32;35378;-77
2023/10/26 02:43:07;;;;;;;;;;;;;;;16.11;72.19;98769.03;5444782;32;34396;-75
2023/10/26 02:46:09;;;;;;;;;;;;;;;15.97;72.61;98767.59;5448416;32;35552;-75
2023/10/26 02:49:11;;;;;;;;;;;;;;;16.62;69.75;98765.38;5444802;32;35051;-63
2023/10/26 02:52:14;;;;;;;;;;;;;;;16.46;70.64;98770.38;5465613;32;34857;-64
2023/10/26 02:55:16;;;;;;;;;;;;;;;16.69;69.34;98763.88;5459118;32;35007;-63
2023/10/26 02:58:18;;;;;;;;;;;;;;;16.24;71.46;98772.28;5448897;32;34548;-76
2023/10/26 03:01:20;;;;;;;;;;;;;;;15.93;71.89;98773.28;5461029;32;35122;-63
2023/10/26 03:04:22;;;;;;;;;;;;;;;15.67;73.92;98771.06;5457535;32;35581;-75
2023/10/26 03:07:24;;;;;;;;;;;;;;;15.77;73.10;98771.09;5447291;32;34614;-74
2023/10/26 03:10:28;;;;;;;;;;;;;;;15.97;72.57;98769.38;5460329;32;34313;-74
2023/10/26 03:13:30;;;;;;;;;;;;;;;16.58;70.01;98763.12;5465058;32;34346;-75
2023/10/26 03:16:32;;;;;;;;;;;;;;;16.60;69.72;98775.28;5471671;32;34771;-73
2023/10/26 03:19:34;;;;;;;;;;;;;;;16.34;70.71;98764.34;5461811;32;34986;-75
2023/10/26 03:22:37;;;;;;;;;;;;;;;16.53;69.62;98764.38;5448273;32;34989;-73
2023/10/26 03:25:39;;;;;;;;;;;;;;;16.18;70.92;98764.88;5466229;32;34415;-63
2023/10/26 03:28:41;;;;;;;;;;;;;;;15.88;72.46;98780.78;5462691;32;34673;-75
2023/10/26 03:31:44;;;;;;;;;;;;;;;15.85;72.94;98773.09;5462112;32;34798;-74
2023/10/26 03:34:46;;;;;;;;;;;;;;;15.96;72.80;98775.66;5449747;32;34370;-64
2023/10/26 03:37:48;;;;;;;;;;;;;;;16.14;71.70;98771.41;5461201;32;34414;-63
2023/10/26 03:40:50;;;;;;;;;;;;;;;16.04;71.94;98773.19;5462287;32;35563;-65
2023/10/26 03:43:54;;;;;;;;;;;;;;;15.55;74.88;98781.81;5447533;32;34748;-74
2023/10/26 03:46:56;;;;;;;;;;;;;;;16.09;72.10;98778.91;5460559;32;34793;-75
2023/10/26 03:49:58;;;;;;;;;;;;;;;15.56;74.40;98784.34;5449407;32;35394;-64
2023/10/26 03:53:02;;;;;;;;;;;;;;;15.18;75.61;98783.09;5459876;32;33164;-74
2023/10/26 03:56:04;;;;;;;;;;;;;;;15.17;74.59;98786.72;5465439;32;35520;-64
2023/10/26 03:59:06;;;;;;;;;;;;;;;15.47;74.21;98777.19;5460966;32;34823;-64
2023/10/26 04:02:09;;;;;;;;;;;;;;;15.37;73.90;98774.47;5458144;32;35500;-73
2023/10/26 04:05:11;;;;;;;;;;;;;;;15.29;74.28;98765.50;5462657;32;34705;-63
2023/10/26 04:08:13;;;;;;;;;;;;;;;14.80;76.69;98766.91;5460405;32;34462;-64
2023/10/26 04:11:18;;;;;;;;;;;;;;;14.71;78.52;98773.81;5451563;32;34219;-64
2023/10/26 04:14:20;;;;;;;;;;;;;;;15.30;75.54;98772.47;5458726;32;35915;-75
2023/10/26 04:17:22;;;;;;;;;;;;;;;14.64;78.37;98780.56;5466418;32;34663;-65
2023/10/26 04:20:25;;;;;;;;;;;;;;;15.09;76.75;98768.00;5460430;32;34918;-64
2023/10/26 04:23:27;;;;;;;;;;;;;;;14.69;78.68;98773.09;5439047;32;34528;-75
2023/10/26 04:26:29;;;;;;;;;;;;;;;14.64;78.36;98772.63;5463868;32;34746;-64
2023/10/26 04:29:31;;;;;;;;;;;;;;;14.73;78.44;98774.50;5445320;32;34356;-74
2023/10/26 04:32:33;;;;;;;;;;;;;;;14.58;79.44;98776.59;5464959;32;34789;-73
2023/10/26 04:35:39;;;;;;;;;;;;;;;14.97;76.71;98776.97;5436014;32;34155;-63
2023/10/26 04:38:41;;;;;;;;;;;;;;;14.56;78.53;98777.72;5464855;32;35073;-64
2023/10/26 04:41:43;;;;;;;;;;;;;;;14.46;79.45;98785.53;5447133;32;35296;-65
2023/10/26 04:44:45;;;;;;;;;;;;;;;14.89;78.62;98779.41;5458964;32;34676;-73
2023/10/26 04:47:47;;;;;;;;;;;;;;;14.60;78.67;98785.25;5449872;32;34326;-76
2023/10/26 04:50:50;;;;;;;;;;;;;;;15.02;78.22;98777.41;5444972;32;34796;-73
2023/10/26 04:53:52;;;;;;;;;;;;;;;15.14;76.67;98773.75;5449605;32;34900;-75
2023/10/26 04:56:54;;;;;;;;;;;;;;;15.45;74.25;98777.28;5460332;32;35330;-64
2023/10/26 04:59:57;;;;;;;;;;;;;;;14.71;78.29;98775.63;5462007;32;34408;-73
2023/10/26 05:02:59;;;;;;;;;;;;;;;15.48;74.96;98770.91;5457536;32;35571;-65
2023/10/26 05:06:01;;;;;;;;;;;;;;;15.44;75.16;98774.78;5456644;32;35300;-64
2023/10/26 05:09:05;;;;;;;;;;;;;;;15.96;72.73;98773.00;5463095;32;35320;-75
2023/10/26 05:12:07;;;;;;;;;;;;;;;16.16;72.15;98777.41;5445578;32;35105;-74
2023/10/26 05:15:09;;;;;;;;;;;;;;;16.12;72.65;98773.34;5459527;32;35202;-65
2023/10/26 05:18:11;;;;;;;;;;;;;;;16.18;71.90;98770.16;5458927;32;35140;-76
2023/10/26 05:21:13;;;;;;;;;;;;;;;16.49;70.45;98772.78;5463571;32;35085;-65
2023/10/26 05:24:15;;;;;;;;;;;;;;;16.66;69.43;98768.59;5444895;32;34997;-64
2023/10/26 05:27:18;;;;;;;;;;;;;;;16.51;68.94;98776.09;5460406;32;35222;-73
2023/10/26 05:30:20;;;;;;;;;;;;;;;16.18;70.21;98790.53;5463154;32;35095;-65
2023/10/26 05:33:22;;;;;;;;;;;;;;;15.89;71.90;98790.41;5462485;32;34486;-68
2023/10/26 05:36:24;;;;;;;;;;;;;;;15.90;72.16;98781.47;5461733;32;34819;-66
2023/10/26 05:39:26;;;;;;;;;;;;;;;15.97;72.24;98791.44;5457193;32;35621;-67
2023/10/26 05:42:28;;;;;;;;;;;;;;;16.09;71.74;98792.16;5468621;32;34757;-69
2023/10/26 05:45:36;;;;;;;;;;;;;;;16.06;71.96;98799.56;5454683;32;35234;-70
2023/10/26 05:48:38;;;;;;;;;;;;;;;16.34;71.04;98800.62;5441978;32;35298;-67
2023/10/26 05:51:40;;;;;;;;;;;;;;;16.48;71.04;98806.38;5456867;32;34223;-71
2023/10/26 05:54:42;;;;;;;;;;;;;;;16.67;69.56;98808.22;5447808;32;35403;-69
2023/10/26 05:57:46;;;;;;;;;;;;;;;16.11;70.91;98795.53;5463937;32;35403;-71
2023/10/26 06:00:48;;;;;;;;;;;;;;;16.07;73.26;98795.91;5452022;32;34638;-70
2023/10/26 06:03:52;;;;;;;;;;;;;;;16.50;71.23;98795.66;5452670;32;34511;-77
2023/10/26 06:06:54;;;;;;;;;;;;;;;17.02;67.80;98797.16;5453154;32;34986;-75
2023/10/26 06:09:56;;;;;;;;;;;;;;;16.33;70.82;98821.00;5443407;32;34342;-85
2023/10/26 06:12:59;;;;;;;;;;;;;;;16.27;70.85;98816.22;5457790;32;36110;-68
2023/10/26 06:16:01;;;;;;;;;;;;;;;17.13;67.28;98813.91;5459319;32;34764;-85
2023/10/26 06:19:05;;;;;;;;;;;;;;;15.75;72.02;98825.19;5455903;32;34276;-69
2023/10/26 06:22:08;;;;;;;;;;;;;;;15.54;72.00;98828.66;5438305;32;37022;-83
2023/10/26 06:25:10;;;;;;;;;;;;;;;16.38;68.99;98833.84;5455465;32;35376;-79
2023/10/26 06:28:15;;;;;;;;;;;;;;;15.88;70.42;98845.19;5456167;32;34337;-68
2023/10/26 06:31:17;;;;;;;;;;;;;;;17.09;66.10;98831.94;5440724;32;34362;-77
2023/10/26 06:34:19;;;;;;;;;;;;;;;16.47;68.30;98843.63;5454848;32;34771;-67
2023/10/26 06:37:21;;;;;;;;;;;;;;;17.08;66.62;98845.34;5453546;32;36006;-68
2023/10/26 06:40:23;;;;;;;;;;;;;;;15.85;71.11;98845.47;5458668;32;34374;-67
2023/10/26 06:43:25;;;;;;;;;;;;;;;15.58;73.44;98839.81;5459353;32;35645;-67
2023/10/26 06:46:27;;;;;;;;;;;;;;;15.63;72.99;98832.34;5431585;32;35170;-77
2023/10/26 06:49:29;;;;;;;;;;;;;;;16.35;69.74;98839.41;5457146;32;36287;-90
2023/10/26 06:52:38;;;;;;;;;;;;;;;17.15;66.18;98842.00;5419256;32;900202;-83
2023/10/26 06:55:40;;;;;;;;;;;;;;;16.11;69.78;98861.78;5462531;32;34668;-69
2023/10/26 06:58:43;;;;;;;;;;;;;;;16.84;66.75;98851.88;5456394;32;35227;-69
2023/10/26 07:01:45;;;;;;;;;;;;;;;16.86;67.46;98841.94;5459628;32;35822;-71
2023/10/26 07:05:07;;;;;;;;;;;;;;;17.22;65.76;98837.81;5457803;32;36132;-70
2023/10/26 07:08:09;;;;;;;;;;;;;;;17.03;66.46;98848.41;5458818;32;35015;-79
2023/10/26 07:11:12;;;;;;;;;;;;;;;16.86;66.82;98843.78;5444243;32;34299;-71
2023/10/26 07:14:14;;;;;;;;;;;;;;;16.19;68.28;98843.41;5457846;32;35877;-78
2023/10/26 07:17:16;;;;;;;;;;;;;;;16.79;66.74;98844.31;5458451;32;34337;-69
2023/10/26 07:20:18;;;;;;;;;;;;;;;16.10;69.96;98852.16;5441093;32;35367;-74
2023/10/26 07:23:20;;;;;;;;;;;;;;;16.49;68.34;98862.94;5462580;32;34995;-77
2023/10/26 07:26:22;;;;;;;;;;;;;;;17.44;64.80;98857.91;5455052;32;34509;-67
2023/10/26 07:29:24;;;;;;;;;;;;;;;16.49;68.21;98874.38;5456390;32;35552;-73
2023/10/26 07:32:26;;;;;;;;;;;;;;;16.59;68.35;98873.56;5461265;32;33908;-73
2023/10/26 07:35:30;;;;;;;;;;;;;;;17.52;65.10;98870.53;5454697;32;36672;-80
2023/10/26 07:38:34;;;;;;;;;;;;;;;17.57;64.30;98877.06;5449179;32;34367;-67
2023/10/26 07:41:56;;;;;;;;;;;;;;;17.67;64.45;98871.75;5454848;32;36109;-67
2023/10/26 07:45:09;;;;;;;;;;;;;;;17.22;64.92;98843.13;5455853;32;34312;-72
2023/10/26 07:48:11;;;;;;;;;;;;;;;17.70;64.16;98847.53;5460185;32;34583;-73
2023/10/26 07:51:13;;;;;;;;;;;;;;;18.13;62.32;98851.53;5457935;32;34661;-75
2023/10/26 07:54:16;;;;;;;;;;;;;;;16.70;66.46;98868.19;5456133;32;35732;-72
2023/10/26 07:57:19;;;;;;;;;;;;;;;17.71;63.65;98872.28;5443032;32;35246;-68
2023/10/26 08:00:22;;;;;;;;;;;;;;;17.96;62.83;98873.53;5436618;32;34854;-81
2023/10/26 08:03:25;;;;;;;;;;;;;;;17.40;65.14;98875.13;5438587;32;35720;-74
2023/10/26 08:06:30;;;;;;;;;;;;;;;16.46;68.84;98889.69;5447831;32;35548;-75
2023/10/26 08:09:31;;;;;;;;;;;;;;;18.04;63.88;98887.81;5455717;32;34281;-69
2023/10/26 08:12:34;;;;;;;;;;;;;;;17.27;65.21;98898.47;5435228;32;35275;-70
2023/10/26 08:15:36;;;;;;;;;;;;;;;17.66;65.40;98896.66;5452928;32;35419;-68
2023/10/26 08:18:58;;;;;;;;;;;;;;;17.51;65.13;98900.69;5434150;32;34583;-68
2023/10/26 08:22:02;;;;;;;;;;;;;;;17.24;66.60;98901.38;5453698;32;35549;-68
2023/10/26 08:25:06;;;;;;;;;;;;;;;17.88;64.33;98890.22;5457753;32;33335;-70
2023/10/26 08:28:08;;;;;;;;;;;;;;;18.43;61.92;98884.19;5451691;32;34598;-68
2023/10/26 08:31:13;;;;;;;;;;;;;;;18.16;62.55;98899.09;5442994;32;34221;-72
2023/10/26 08:34:15;;;;;;;;;;;;;;;18.72;61.00;98892.06;5438809;32;33811;-75
2023/10/26 08:37:17;;;;;;;;;;;;;;;18.79;60.64;98898.47;5453342;32;34626;-67
2023/10/26 08:40:22;;;;;;;;;;;;;;;17.94;63.08;98910.06;5426960;32;35006;-72
2023/10/26 08:43:24;;;;;;;;;;;;;;;17.73;64.70;98913.72;5446248;32;35298;-70
2023/10/26 08:46:26;;;;;;;;;;;;;;;17.29;65.07;98912.44;5454376;32;34453;-72
2023/10/26 08:49:29;;;;;;;;;;;;;;;16.77;68.15;98909.94;5445696;32;33867;-66
2023/10/26 08:52:31;;;;;;;;;;;;;;;18.02;64.55;98896.91;5452459;32;32765;-70
2023/10/26 08:55:43;;;;;;;;;;;;;;;17.30;65.83;98900.81;5450637;32;35562;-69
2023/10/26 08:58:45;;;;;;;;;;;;;;;18.14;63.37;98899.25;5452353;32;34484;-70
2023/10/26 09:01:47;;;;;;;;;;;;;;;18.23;62.99;98889.59;5438265;32;35414;-75
2023/10/26 09:05:17;;;;;;;;;;;;;;;19.06;60.02;98892.28;5446100;32;34403;-68
2023/10/26 09:08:23;;;;;;;;;;;;;;;18.73;61.12;98889.25;5455890;32;36837;-71
2023/10/26 09:11:25;;;;;;;;;;;;;;;18.87;60.67;98890.56;5426587;32;34991;-67
2023/10/26 09:14:28;;;;;;;;;;;;;;;18.64;60.86;98898.09;5458414;32;34041;-87
2023/10/26 09:17:31;;;;;;;;;;;;;;;18.74;60.79;98900.72;5455407;32;34350;-80
2023/10/26 09:20:36;;;;;;;;;;;;;;;18.54;61.59;98903.44;5456260;32;34333;-69
2023/10/26 09:23:40;;;;;;;;;;;;;;;19.69;58.53;98903.75;5460738;32;34432;-71
2023/10/26 09:26:44;;;;;;;;;;;;;;;19.42;57.82;98914.47;5402681;32;34817;-79
2023/10/26 09:29:47;;;;;;;;;;;;;;;20.27;56.03;98905.81;5382514;32;34617;-67
2023/10/26 09:32:49;;;;;;;;;;;;;;;19.26;58.98;98914.31;5380700;32;36331;-71
2023/10/26 09:35:55;;;;;;;;;;;;;;;19.57;58.01;98912.09;5396940;32;34408;-71
2023/10/26 09:38:57;;;;;;;;;;;;;;;20.06;57.17;98913.38;5456376;32;34290;-73
2023/10/26 09:42:01;;;;;;;;;;;;;;;20.40;55.32;98908.06;5456917;32;34665;-70
2023/10/26 09:45:03;;;;;;;;;;;;;;;21.06;53.30;98912.75;5446044;32;35281;-71
2023/10/26 09:48:05;;;;;;;;;;;;;;;19.93;56.10;98913.78;5440108;32;34155;-73
2023/10/26 09:51:09;;;;;;;;;;;;;;;20.50;54.67;98900.84;5445137;32;34245;-73
2023/10/26 09:54:14;;;;;;;;;;;;;;;19.41;57.99;98907.47;5437496;32;34261;-75
2023/10/26 09:57:17;;;;;;;;;;;;;;;19.74;57.88;98898.78;5457867;32;34827;-74
2023/10/26 10:00:21;;;;;;;;;;;;;;;20.76;53.68;98905.28;5440244;32;34630;-81
2023/10/26 10:03:26;;;;;;;;;;;;;;;20.22;54.97;98891.28;5453800;32;34280;-74
2023/10/26 10:06:50;;;;;;;;;;;;;;;21.12;52.45;98894.38;5461697;32;34453;-87
2023/10/26 10:10:01;;;;;;;;;;;;;;;20.75;53.72;98896.44;5442806;32;37495;-81
2023/10/26 10:13:03;;;;;;;;;;;;;;;20.90;53.34;98894.00;5456718;32;34327;-80
2023/10/26 10:16:05;;;;;;;;;;;;;;;21.95;50.65;98895.13;5455027;32;35928;-75
2023/10/26 10:19:20;;;;;;;;;;;;;;;21.02;53.27;98892.69;5439396;32;35316;-70
2023/10/26 10:22:42;;;;;;;;;;;;;;;20.97;53.65;98887.00;5444160;32;34156;-71
2023/10/26 10:25:50;;;;;;;;;;;;;;;24.15;44.33;98872.59;5445326;32;35421;-74
2023/10/26 10:28:53;;;;;;;;;;;;;;;23.70;44.44;98877.03;5457577;32;34365;-68
2023/10/26 10:31:55;;;;;;;;;;;;;;;22.09;48.00;98886.47;5443611;32;35671;-71
2023/10/26 10:34:57;;;;;;;;;;;;;;;23.19;45.79;98875.88;5453554;32;34448;-71
2023/10/26 10:38:11;;;;;;;;;;;;;;;23.43;43.47;98864.13;5456572;32;34399;-73
2023/10/26 10:41:15;;;;;;;;;;;;;;;22.90;45.51;98865.81;5442966;32;34291;-78
2023/10/26 10:44:18;;;;;;;;;;;;;;;23.64;43.90;98869.72;5455701;32;35568;-72
2023/10/26 10:47:20;;;;;;;;;;;;;;;23.02;44.64;98872.44;5439682;32;35702;-71
2023/10/26 10:50:23;;;;;;;;;;;;;;;21.73;47.37;98869.94;5452240;32;34486;-74
2023/10/26 10:53:27;;;;;;;;;;;;;;;20.25;51.97;98874.97;5445391;32;34734;-71
2023/10/26 10:56:38;;;;;;;;;;;;;;;19.98;52.61;98863.50;5458149;32;34414;-83
2023/10/26 10:59:40;;;;;;;;;;;;;;;20.67;50.74;98864.34;5459146;32;34224;-75
2023/10/26 11:02:47;;;;;;;;;;;;;;;20.14;48.08;98865.41;5454880;32;35913;-77
2023/10/26 11:05:49;;;;;;;;;;;;;;;21.06;44.21;98863.84;5418960;32;35613;-82
2023/10/26 11:08:54;;;;;;;;;;;;;;;21.95;44.89;98868.38;5415112;32;34189;-71
2023/10/26 11:11:56;;;;;;;;;;;;;;;22.49;44.28;98847.22;5402469;32;34267;-71
2023/10/26 11:14:58;;;;;;;;;;;;;;;23.74;39.86;98845.31;5411587;32;34441;-72
2023/10/26 11:18:05;;;;;;;;;;;;;;;23.45;40.48;98838.00;5399874;32;35761;-70
2023/10/26 11:21:14;;;;;;;;;;;;;;;23.17;41.24;98837.66;5401625;32;33612;-72
2023/10/26 11:24:17;;;;;;;;;;;;;;;22.92;41.93;98839.66;5418780;32;35116;-71
2023/10/26 11:27:19;;;;;;;;;;;;;;;23.82;40.80;98839.84;5415269;32;34473;-73
2023/10/26 11:30:22;;;;;;;;;;;;;;;22.78;43.44;98851.09;5422270;32;32877;-79
2023/10/26 11:33:34;;;;;;;;;;;;;;;22.75;43.97;98843.44;5401027;32;35734;-77
2023/10/26 11:36:37;;;;;;;;;;;;;;;24.90;39.10;98833.94;5407256;32;34179;-78
2023/10/26 11:39:45;;;;;;;;;;;;;;;23.96;40.44;98831.03;5418232;32;35892;-71
2023/10/26 11:42:52;;;;;;;;;;;;;;;24.18;40.44;98829.25;5419698;32;34612;-73
2023/10/26 11:45:54;;;;;;;;;;;;;;;22.48;45.97;98821.47;5404203;32;35543;-73
2023/10/26 11:48:56;;;;;;;;;;;;;;;24.03;42.23;98823.91;5416663;32;35611;-81
2023/10/26 11:51:58;;;;;;;;;;;;;;;23.66;40.17;98835.47;5419369;32;34884;-72
2023/10/26 11:55:02;;;;;;;;;;;;;;;23.32;39.92;98829.72;5416193;32;34306;-77
2023/10/26 11:58:04;;;;;;;;;;;;;;;22.42;41.99;98828.34;5418451;32;34780;-77
2023/10/26 12:01:07;;;;;;;;;;;;;;;22.02;42.41;98823.06;5411938;32;34354;-82
2023/10/26 12:04:12;;;;;;;;;;;;;;;20.74;45.86;98835.22;5415937;32;35459;-74
2023/10/26 12:07:14;;;;;;;;;;;;;;;21.34;44.88;98835.00;5406613;32;35713;-71
2023/10/26 12:10:17;;;;;;;;;;;;;;;21.52;44.35;98830.34;5419912;32;35467;-76
2023/10/26 12:13:19;;;;;;;;;;;;;;;21.67;44.95;98840.34;5398004;32;34308;-76
2023/10/26 12:16:21;;;;;;;;;;;;;;;24.00;39.24;98832.31;5402361;32;35306;-80
2023/10/26 12:19:23;;;;;;;;;;;;;;;22.46;42.02;98841.38;5420732;32;35380;-71
2023/10/26 12:22:25;;;;;;;;;;;;;;;23.45;40.09;98844.19;5390535;32;34479;-74
2023/10/26 12:25:27;;;;;;;;;;;;;;;23.27;40.40;98835.59;5416218;32;34099;-72
2023/10/26 12:28:30;;;;;;;;;;;;;;;22.96;40.74;98855.22;5422168;32;33538;-69
2023/10/26 12:31:32;;;;;;;;;;;;;;;22.74;40.76;98855.16;5399045;32;36223;-72
2023/10/26 12:34:34;;;;;;;;;;;;;;;22.15;41.73;98858.19;5413231;32;37258;-81
2023/10/26 12:37:37;;;;;;;;;;;;;;;20.97;44.56;98860.28;5405033;32;35385;-74
2023/10/26 12:40:39;;;;;;;;;;;;;;;21.74;42.84;98858.22;5413951;32;34134;-77
2023/10/26 12:43:41;;;;;;;;;;;;;;;22.09;41.39;98848.16;5411613;32;34211;-73
2023/10/26 12:46:43;;;;;;;;;;;;;;;21.62;42.57;98847.03;5403303;32;35664;-73
2023/10/26 12:49:45;;;;;;;;;;;;;;;21.14;42.65;98852.31;5400918;32;34343;-75
2023/10/26 12:52:48;;;;;;;;;;;;;;;21.49;41.64;98841.34;5413772;32;35599;-79
2023/10/26 12:55:50;;;;;;;;;;;;;;;22.30;39.89;98844.94;5416732;32;34485;-72
2023/10/26 12:58:52;;;;;;;;;;;;;;;21.47;41.59;98840.69;5394461;32;34122;-73
2023/10/26 13:01:57;;;;;;;;;;;;;;;21.77;41.57;98836.50;5415723;32;35744;-75
2023/10/26 13:04:59;;;;;;;;;;;;;;;22.50;40.55;98840.84;5391477;32;34081;-70
2023/10/26 13:08:01;;;;;;;;;;;;;;;21.69;41.66;98844.50;5411474;32;34108;-67
2023/10/26 13:11:03;;;;;;;;;;;;;;;21.17;43.79;98841.28;5412103;32;35494;-72
2023/10/26 13:14:07;;;;;;;;;;;;;;;21.16;44.08;98842.28;5407790;32;34809;-73
2023/10/26 13:17:09;;;;;;;;;;;;;;;21.17;43.99;98842.13;5413027;32;35417;-72
2023/10/26 13:20:11;;;;;;;;;;;;;;;21.13;44.23;98847.97;5406872;32;34091;-70
2023/10/26 13:23:13;;;;;;;;;;;;;;;22.01;41.93;98835.63;5403675;32;34216;-74
2023/10/26 13:26:15;;;;;;;;;;;;;;;22.32;40.71;98835.72;5399923;32;34422;-77
2023/10/26 13:29:17;;;;;;;;;;;;;;;22.68;39.63;98836.09;5418498;32;36438;-74
2023/10/26 13:32:20;;;;;;;;;;;;;;;23.22;38.76;98827.25;5402477;32;34397;-72
2023/10/26 13:35:24;;;;;;;;;;;;;;;22.86;39.57;98833.19;5408999;32;35847;-72
2023/10/26 13:38:26;;;;;;;;;;;;;;;21.91;41.12;98832.31;5416603;32;34211;-72
2023/10/26 13:41:28;;;;;;;;;;;;;;;21.59;41.83;98828.66;5416393;32;34320;-71
2023/10/26 13:44:30;;;;;;;;;;;;;;;21.11;42.78;98834.78;5399264;32;34220;-69
2023/10/26 13:47:32;;;;;;;;;;;;;;;21.53;40.97;98828.50;5400604;32;35631;-74
2023/10/26 13:50:34;;;;;;;;;;;;;;;22.28;40.03;98836.25;5399230;32;34596;-71
2023/10/26 13:53:36;;;;;;;;;;;;;;;21.53;41.52;98844.53;5403708;32;35347;-72
2023/10/26 13:56:38;;;;;;;;;;;;;;;22.01;40.72;98840.97;5414398;32;34309;-70
2023/10/26 13:59:43;;;;;;;;;;;;;;;22.00;40.31;98831.28;5421883;32;34256;-77
2023/10/26 14:02:45;;;;;;;;;;;;;;;20.95;42.68;98838.25;5450259;32;37238;-76
2023/10/26 14:05:51;;;;;;;;;;;;;;;21.31;42.80;98819.28;5433200;32;35802;-68
2023/10/26 14:08:57;;;;;;;;;;;;;;;20.53;45.53;98827.59;5444806;32;34160;-73
2023/10/26 14:12:01;;;;;;;;;;;;;;;20.75;45.97;98834.22;5447356;32;34153;-70
2023/10/26 14:15:03;;;;;;;;;;;;;;;21.76;44.17;98823.28;5450647;32;35692;-71
2023/10/26 14:18:05;;;;;;;;;;;;;;;21.09;45.67;98826.94;5452827;32;33571;-70
2023/10/26 14:21:08;;;;;;;;;;;;;;;21.56;44.73;98826.31;5457664;32;34946;-70
2023/10/26 14:24:10;;;;;;;;;;;;;;;20.80;46.07;98831.84;5451390;32;34742;-71
2023/10/26 14:27:12;;;;;;;;;;;;;;;20.06;47.15;98840.53;5452213;32;34411;-73
2023/10/26 14:30:14;;;;;;;;;;;;;;;19.75;48.45;98830.31;5450256;32;34476;-71
2023/10/26 14:33:16;;;;;;;;;;;;;;;19.81;48.08;98821.69;5430555;32;34642;-72
2023/10/26 14:36:18;;;;;;;;;;;;;;;19.89;48.03;98826.25;5453774;32;35508;-70
2023/10/26 14:39:20;;;;;;;;;;;;;;;19.88;48.13;98830.75;5450188;32;35496;-71
2023/10/26 14:42:22;;;;;;;;;;;;;;;19.85;47.99;98831.06;5460257;32;34743;-71
2023/10/26 14:45:25;;;;;;;;;;;;;;;19.82;48.00;98826.03;5460120;32;35087;-69
2023/10/26 14:48:27;;;;;;;;;;;;;;;19.70;48.63;98825.44;5460437;32;35331;-70
2023/10/26 14:51:30;;;;;;;;;;;;;;;19.59;49.48;98824.91;5445941;32;35941;-72
2023/10/26 14:54:32;;;;;;;;;;;;;;;19.21;50.50;98833.03;5445337;32;35065;-72
2023/10/26 14:57:34;;;;;;;;;;;;;;;19.40;50.46;98832.03;5446031;32;34918;-70
2023/10/26 15:00:38;;;;;;;;;;;;;;;19.87;49.53;98829.06;5461197;32;35772;-70
2023/10/26 15:03:42;;;;;;;;;;;;;;;19.87;49.19;98821.06;5461716;32;34343;-70
2023/10/26 15:06:47;;;;;;;;;;;;;;;19.79;49.38;98821.03;5442526;32;34771;-72
2023/10/26 15:09:50;;;;;;;;;;;;;;;20.41;47.55;98816.34;5463014;32;35003;-71
2023/10/26 15:13:12;;;;;;;;;;;;;;;20.07;48.11;98826.19;5464291;32;35897;-73
2023/10/26 15:16:14;;;;;;;;;;;;;;;20.31;47.44;98831.66;5430810;32;35393;-72
2023/10/26 15:19:16;;;;;;;;;;;;;;;19.47;48.97;98827.75;5437049;32;34105;-69
2023/10/26 15:22:18;;;;;;;;;;;;;;;19.85;48.42;98839.06;5459553;32;35161;-72
2023/10/26 15:25:20;;;;;;;;;;;;;;;19.85;48.22;98831.06;5465524;32;34699;-70
2023/10/26 15:28:22;;;;;;;;;;;;;;;19.75;48.32;98838.31;5458832;32;34847;-70
2023/10/26 15:31:26;;;;;;;;;;;;;;;19.40;49.28;98837.38;5445126;32;35137;-70
2023/10/26 15:34:28;;;;;;;;;;;;;;;19.31;49.40;98837.44;5464896;32;34398;-69
2023/10/26 15:37:30;;;;;;;;;;;;;;;19.23;49.13;98846.19;5447489;32;35004;-71
2023/10/26 15:40:32;;;;;;;;;;;;;;;19.65;47.99;98832.25;5476821;32;34772;-71
2023/10/26 15:43:34;;;;;;;;;;;;;;;19.28;48.83;98841.25;5462463;32;35366;-71
2023/10/26 15:46:36;;;;;;;;;;;;;;;19.54;48.37;98851.97;5449888;32;35309;-70
2023/10/26 15:49:39;;;;;;;;;;;;;;;20.09;46.66;98848.19;5462191;32;34535;-70
2023/10/26 15:52:41;;;;;;;;;;;;;;;19.46;48.26;98850.06;5462382;32;34357;-69
2023/10/26 15:55:43;;;;;;;;;;;;;;;19.66;47.80;98844.59;5465761;32;35461;-71